Map

Track Data

SID SEASON NUMBER BASIN SUBBASIN NAME ISO_TIME NATURE LAT LON WMO_WIND WMO_PRES WMO_AGENCY TRACK_TYPE DIST2LAND LANDFALL IFLAG USA_AGENCY USA_ATCF_ID USA_LAT USA_LON USA_RECORD USA_STATUS USA_WIND USA_PRES USA_SSHS USA_R34_NE USA_R34_SE USA_R34_SW USA_R34_NW USA_R50_NE USA_R50_SE USA_R50_SW USA_R50_NW USA_R64_NE USA_R64_SE USA_R64_SW USA_R64_NW USA_POCI USA_ROCI USA_RMW USA_EYE TOKYO_LAT TOKYO_LON TOKYO_GRADE TOKYO_WIND TOKYO_PRES TOKYO_R50_DIR TOKYO_R50_LONG TOKYO_R50_SHORT TOKYO_R30_DIR TOKYO_R30_LONG TOKYO_R30_SHORT TOKYO_LAND CMA_LAT CMA_LON CMA_CAT CMA_WIND CMA_PRES HKO_LAT HKO_LON HKO_CAT HKO_WIND HKO_PRES NEWDELHI_LAT NEWDELHI_LON NEWDELHI_GRADE NEWDELHI_WIND NEWDELHI_PRES NEWDELHI_CI NEWDELHI_DP NEWDELHI_POCI REUNION_LAT REUNION_LON REUNION_TYPE REUNION_WIND REUNION_PRES REUNION_TNUM REUNION_CI REUNION_RMW REUNION_R34_NE REUNION_R34_SE REUNION_R34_SW REUNION_R34_NW REUNION_R50_NE REUNION_R50_SE REUNION_R50_SW REUNION_R50_NW REUNION_R64_NE REUNION_R64_SE REUNION_R64_SW REUNION_R64_NW BOM_LAT BOM_LON BOM_TYPE BOM_WIND BOM_PRES BOM_TNUM BOM_CI BOM_RMW BOM_R34_NE BOM_R34_SE BOM_R34_SW BOM_R34_NW BOM_R50_NE BOM_R50_SE BOM_R50_SW BOM_R50_NW BOM_R64_NE BOM_R64_SE BOM_R64_SW BOM_R64_NW BOM_ROCI BOM_POCI BOM_EYE BOM_POS_METHOD BOM_PRES_METHOD NADI_LAT NADI_LON NADI_CAT NADI_WIND NADI_PRES WELLINGTON_LAT WELLINGTON_LON WELLINGTON_WIND WELLINGTON_PRES DS824_LAT DS824_LON DS824_STAGE DS824_WIND DS824_PRES TD9636_LAT TD9636_LON TD9636_STAGE TD9636_WIND TD9636_PRES TD9635_LAT TD9635_LON TD9635_WIND TD9635_PRES TD9635_ROCI NEUMANN_LAT NEUMANN_LON NEUMANN_CLASS NEUMANN_WIND NEUMANN_PRES MLC_LAT MLC_LON MLC_CLASS MLC_WIND MLC_PRES USA_GUST BOM_GUST BOM_GUST_PER REUNION_GUST REUNION_GUST_PER USA_SEAHGT USA_SEARAD_NE USA_SEARAD_SE USA_SEARAD_SW USA_SEARAD_NW STORM_SPEED STORM_DIR
1952125N07137 1952 26 WP MM NOT_NAMED 1952-05-03 12:00:00 NR 7.40000 136.800 main 917 914 __________O___ -1 7.40000 136.800 2 4 267
1952125N07137 1952 26 WP MM NOT_NAMED 1952-05-03 15:00:00 NR 7.39066 136.609 main 914 912 __________P___ -1 7.39066 136.609 2 4 268
1952125N07137 1952 26 WP MM NOT_NAMED 1952-05-03 18:00:00 NR 7.38503 136.415 main 912 910 __________P___ -1 7.38503 136.415 2 4 269
1952125N07137 1952 26 WP MM NOT_NAMED 1952-05-03 21:00:00 NR 7.38688 136.213 main 910 908 __________P___ -1 7.38688 136.213 2 4 272
1952125N07137 1952 26 WP MM NOT_NAMED 1952-05-04 00:00:00 NR 7.40000 136.000 main 908 907 __________O___ -1 7.40000 136.000 2 4 275
1952125N07137 1952 26 WP MM NOT_NAMED 1952-05-04 03:00:00 NR 7.42751 135.774 main 907 907 __________P___ -1 7.42751 135.774 2 5 279
1952125N07137 1952 26 WP MM NOT_NAMED 1952-05-04 06:00:00 NR 7.47002 135.543 main 918 918 __________P___ -1 7.47002 135.543 2 5 282
1952125N07137 1952 26 WP MM NOT_NAMED 1952-05-04 09:00:00 NR 7.52751 135.315 main 919 910 __________P___ -1 7.52751 135.315 2 5 286
1952125N07137 1952 26 WP MM NOT_NAMED 1952-05-04 12:00:00 NR 7.60000 135.100 main 910 900 __________O___ -1 7.60000 135.100 2 4 289
1952125N07137 1952 26 WP MM NOT_NAMED 1952-05-04 15:00:00 NR 7.65705 134.935 main 900 892 __________P___ -1 7.65705 134.935 2 3 293
1952125N07137 1952 26 WP MM NOT_NAMED 1952-05-04 18:00:00 NR 7.73230 134.780 main 892 882 __________P___ -1 7.73230 134.780 2 4 300
1952125N07137 1952 26 WP MM NOT_NAMED 1952-05-04 21:00:00 NR 7.84140 134.610 main 882 860 __________P___ -1 7.84140 134.610 2 5 305
1952125N07137 1952 26 WP MM NOT_NAMED 1952-05-05 00:00:00 NR 8.00000 134.400 main 860 839 __________O___ -1 8.00000 134.400 2 6 309
1952125N07137 1952 26 WP MM NOT_NAMED 1952-05-05 03:00:00 NR 8.22872 134.134 main 828 798 __________P___ -1 8.22872 134.134 2 8 312
1952125N07137 1952 26 WP MM NOT_NAMED 1952-05-05 06:00:00 NR 8.50492 133.825 main 798 769 __________P___ -1 8.50492 133.825 2 9 312
1952125N07137 1952 26 WP MM NOT_NAMED 1952-05-05 09:00:00 NR 8.80366 133.478 main 769 732 __________P___ -1 8.80366 133.478 2 9 310
1952125N07137 1952 26 WP MM NOT_NAMED 1952-05-05 12:00:00 NR 9.10000 133.100 main 732 694 __________O___ -1 9.10000 133.100 2 10 306
1952125N07137 1952 26 WP MM NOT_NAMED 1952-05-05 15:00:00 NR 9.36947 132.692 main 697 662 __________P___ -1 9.36947 132.692 2 10 303
1952125N07137 1952 26 WP MM NOT_NAMED 1952-05-05 18:00:00 NR 9.63014 132.258 main 662 616 __________P___ -1 9.63014 132.258 2 10 300
1952125N07137 1952 26 WP MM NOT_NAMED 1952-05-05 21:00:00 NR 9.87572 131.820 main 616 578 __________P___ -1 9.87572 131.820 2 10 299
1952125N07137 1952 26 WP MM NOT_NAMED 1952-05-06 00:00:00 NR 10.1000 131.400 main 578 540 __________O___ -1 10.1000 131.400 2 9 298
1952125N07137 1952 26 WP MM NOT_NAMED 1952-05-06 03:00:00 NR 10.2883 131.020 main 540 511 __________P___ -1 10.2883 131.020 2 8 296
1952125N07137 1952 26 WP MM NOT_NAMED 1952-05-06 06:00:00 NR 10.4573 130.662 main 514 476 __________P___ -1 10.4573 130.662 2 8 296
1952125N07137 1952 26 WP MM NOT_NAMED 1952-05-06 09:00:00 NR 10.6227 130.323 main 476 453 __________P___ -1 10.6227 130.323 2 7 298
1952125N07137 1952 26 WP MM NOT_NAMED 1952-05-06 12:00:00 NR 10.8000 130.000 main 453 426 __________O___ -1 10.8000 130.000 2 7 301
1952125N07137 1952 26 WP MM NOT_NAMED 1952-05-06 15:00:00 NR 11.0011 129.689 main 426 393 __________P___ -1 11.0011 129.689 2 7 305
1952125N07137 1952 26 WP MM NOT_NAMED 1952-05-06 18:00:00 NR 11.2228 129.388 main 393 362 __________P___ -1 11.2228 129.388 2 7 308
1952125N07137 1952 26 WP MM NOT_NAMED 1952-05-06 21:00:00 NR 11.4580 129.093 main 364 336 __________P___ -1 11.4580 129.093 2 8 310
1952125N07137 1952 26 WP MM NOT_NAMED 1952-05-07 00:00:00 NR 11.7000 128.800 main 336 __________O___ -1 11.7000 128.800 2 8 310

Digital Typhoon Data and Search

About IBTrACS Database

This database is a web-friendly format of International Best Track Archive for Climate Stewardship (IBTrACS), a global best track data archive curated by NOAA dating back to 1842.

Updated: 2021-10-08